createdAt,value
2023-04-15T00:00:20.673Z,9.82
2023-04-15T00:01:20.617Z,9.80
2023-04-15T00:02:20.777Z,9.74
2023-04-15T00:03:20.900Z,9.72
2023-04-15T00:04:20.719Z,9.70
2023-04-15T00:05:20.587Z,9.74
2023-04-15T00:06:20.582Z,9.74
2023-04-15T00:07:20.576Z,9.70
2023-04-15T00:08:20.590Z,9.67
2023-04-15T00:09:20.531Z,9.69
2023-04-15T00:10:20.673Z,9.69
2023-04-15T00:11:20.541Z,9.66
2023-04-15T00:12:20.494Z,9.66
2023-04-15T00:13:20.505Z,9.64
2023-04-15T00:14:20.500Z,9.62
2023-04-15T00:15:20.467Z,9.56
2023-04-15T00:16:20.480Z,9.64
2023-04-15T00:17:20.458Z,9.58
2023-04-15T00:18:20.453Z,9.58
2023-04-15T00:19:20.431Z,9.54
2023-04-15T00:20:20.452Z,9.56
2023-04-15T00:21:20.441Z,9.58
2023-04-15T00:22:20.420Z,9.56
2023-04-15T00:23:20.409Z,9.54
2023-04-15T00:24:20.410Z,9.54
2023-04-15T00:25:20.441Z,9.52
2023-04-15T00:26:20.440Z,9.58
2023-04-15T00:27:20.410Z,9.55
2023-04-15T00:28:20.354Z,9.54
2023-04-15T00:29:20.399Z,9.52
2023-04-15T00:30:20.373Z,9.52
2023-04-15T00:31:20.480Z,9.52
2023-04-15T00:32:20.381Z,9.49
2023-04-15T00:33:20.327Z,9.48
2023-04-15T00:34:20.294Z,9.45
2023-04-15T00:35:20.355Z,9.48
2023-04-15T00:36:20.309Z,9.44
2023-04-15T00:37:20.234Z,9.39
2023-04-15T00:38:20.270Z,9.40
2023-04-15T00:39:20.214Z,9.39
2023-04-15T00:40:20.280Z,9.39
2023-04-15T00:41:20.247Z,9.37
2023-04-15T00:42:20.207Z,9.37
2023-04-15T00:43:20.202Z,9.34
2023-04-15T00:44:20.219Z,9.39
2023-04-15T00:45:20.198Z,9.42
2023-04-15T00:46:20.198Z,9.34
2023-04-15T00:47:20.186Z,9.33
2023-04-15T00:48:20.156Z,9.33
2023-04-15T00:49:20.160Z,9.34
2023-04-15T00:50:20.187Z,9.36
2023-04-15T00:51:20.166Z,9.37
2023-04-15T00:52:20.148Z,9.44
2023-04-15T00:53:20.122Z,9.42
2023-04-15T00:54:20.075Z,9.37
2023-04-15T00:55:20.089Z,9.36
2023-04-15T00:56:20.036Z,9.36
2023-04-15T00:57:20.017Z,9.39
2023-04-15T00:58:20.028Z,9.37
2023-04-15T00:59:20.050Z,9.36
2023-04-15T01:00:20.020Z,9.36
2023-04-15T01:01:20.037Z,9.30
2023-04-15T01:02:20.080Z,9.27
2023-04-15T01:03:20.157Z,9.29
2023-04-15T01:04:20.045Z,9.37
2023-04-15T01:05:19.979Z,9.33
2023-04-15T01:06:19.979Z,9.31
2023-04-15T01:07:19.943Z,9.26
2023-04-15T01:08:19.919Z,9.22
2023-04-15T01:09:19.966Z,9.22
2023-04-15T01:10:19.927Z,9.16
2023-04-15T01:11:19.942Z,9.21
2023-04-15T01:12:19.887Z,9.22
2023-04-15T01:13:19.846Z,9.16
2023-04-15T01:14:19.832Z,9.15
2023-04-15T01:15:19.835Z,9.13
2023-04-15T01:16:20.041Z,9.13
2023-04-15T01:17:19.893Z,9.09
2023-04-15T01:18:19.850Z,9.08
2023-04-15T01:19:19.784Z,9.05
2023-04-15T01:20:19.824Z,9.05
2023-04-15T01:21:19.795Z,9.05
2023-04-15T01:22:19.799Z,8.99
2023-04-15T01:23:19.774Z,8.99
2023-04-15T01:24:19.766Z,8.99
2023-04-15T01:25:19.812Z,9.02
2023-04-15T01:26:19.783Z,8.97
2023-04-15T01:27:19.759Z,9.00
2023-04-15T01:28:19.744Z,9.05
2023-04-15T01:29:19.741Z,9.05
2023-04-15T01:30:19.675Z,9.02
2023-04-15T01:31:19.747Z,9.02
2023-04-15T01:32:19.705Z,9.00
2023-04-15T01:33:19.667Z,8.99
2023-04-15T01:34:19.666Z,8.99
2023-04-15T01:35:19.674Z,8.96
2023-04-15T01:36:19.699Z,8.96
2023-04-15T01:37:19.645Z,8.97
2023-04-15T01:38:19.753Z,8.96
2023-04-15T01:39:19.611Z,8.99
2023-04-15T01:40:19.644Z,8.96
2023-04-15T01:41:20.230Z,8.90
2023-04-15T01:42:19.561Z,8.89
2023-04-15T01:43:19.649Z,8.90
2023-04-15T01:44:19.557Z,8.93
2023-04-15T01:45:19.601Z,8.93
2023-04-15T01:46:19.592Z,8.95
2023-04-15T01:47:19.590Z,8.92
2023-04-15T01:48:19.547Z,8.89
2023-04-15T01:49:19.501Z,8.93
2023-04-15T01:50:19.484Z,8.89
2023-04-15T01:51:19.523Z,8.89
2023-04-15T01:52:19.485Z,8.90
2023-04-15T01:53:19.436Z,8.90
2023-04-15T01:54:19.531Z,8.90
2023-04-15T01:55:19.463Z,8.84
2023-04-15T01:56:19.570Z,8.87
2023-04-15T01:57:19.425Z,8.89
2023-04-15T01:58:19.461Z,8.89
2023-04-15T01:59:19.433Z,8.90
2023-04-15T02:00:19.434Z,8.87
2023-04-15T02:01:19.390Z,8.82
2023-04-15T02:02:19.569Z,8.89
2023-04-15T02:03:19.495Z,8.82
2023-04-15T02:04:19.389Z,8.84
2023-04-15T02:05:19.384Z,8.87
2023-04-15T02:06:19.490Z,8.84
2023-04-15T02:07:19.362Z,8.78
2023-04-15T02:08:19.308Z,8.81
2023-04-15T02:09:19.303Z,8.78
2023-04-15T02:10:19.327Z,8.78
2023-04-15T02:11:19.350Z,8.74
2023-04-15T02:12:19.253Z,8.75
2023-04-15T02:13:19.357Z,8.72
2023-04-15T02:14:19.374Z,8.74
2023-04-15T02:15:19.579Z,8.75
2023-04-15T02:16:19.445Z,8.69
2023-04-15T02:17:19.278Z,8.64
2023-04-15T02:18:19.567Z,8.60
2023-04-15T02:19:19.221Z,8.57
2023-04-15T02:20:19.186Z,8.60
2023-04-15T02:21:19.237Z,8.56
2023-04-15T02:22:19.149Z,8.54
2023-04-15T02:23:19.181Z,8.56
2023-04-15T02:24:19.217Z,8.53
2023-04-15T02:25:19.240Z,8.53
2023-04-15T02:26:19.194Z,8.54
2023-04-15T02:27:19.173Z,8.53
2023-04-15T02:28:19.134Z,8.54
2023-04-15T02:29:19.337Z,8.53
2023-04-15T02:30:19.205Z,8.56
2023-04-15T02:31:19.178Z,8.53
2023-04-15T02:32:19.129Z,8.56
2023-04-15T02:33:19.113Z,8.52
2023-04-15T02:34:19.096Z,8.53
2023-04-15T02:35:19.072Z,8.54
2023-04-15T02:36:19.026Z,8.53
2023-04-15T02:37:19.007Z,8.52
2023-04-15T02:38:19.002Z,8.49
2023-04-15T02:39:18.966Z,8.49
2023-04-15T02:40:19.021Z,8.52
2023-04-15T02:41:18.998Z,8.49
2023-04-15T02:42:18.937Z,8.52
2023-04-15T02:43:18.910Z,8.50
2023-04-15T02:44:18.958Z,8.52
2023-04-15T02:45:18.989Z,8.46
2023-04-15T02:46:19.050Z,8.52
2023-04-15T02:47:18.912Z,8.50
2023-04-15T02:48:18.968Z,8.44
2023-04-15T02:49:18.935Z,8.41
2023-04-15T02:50:18.883Z,8.39
2023-04-15T02:51:18.862Z,8.44
2023-04-15T02:52:18.813Z,8.44
2023-04-15T02:53:18.876Z,8.39
2023-04-15T02:54:18.861Z,8.38
2023-04-15T02:55:18.856Z,8.35
2023-04-15T02:56:18.791Z,8.35
2023-04-15T02:57:18.891Z,8.38
2023-04-15T02:58:18.759Z,8.36
2023-04-15T02:59:18.755Z,8.38
2023-04-15T03:00:18.738Z,8.36
2023-04-15T03:01:18.850Z,8.35
2023-04-15T03:02:18.910Z,8.35
2023-04-15T03:03:18.893Z,8.35
2023-04-15T03:04:18.888Z,8.35
2023-04-15T03:05:18.736Z,8.36
2023-04-15T03:06:18.714Z,8.35
2023-04-15T03:07:18.693Z,8.38
2023-04-15T03:08:18.679Z,8.38
2023-04-15T03:09:18.694Z,8.36
2023-04-15T03:10:18.667Z,8.36
2023-04-15T03:11:18.655Z,8.34
2023-04-15T03:12:18.620Z,8.35
2023-04-15T03:13:18.611Z,8.34
2023-04-15T03:14:18.594Z,8.35
2023-04-15T03:15:18.596Z,8.34
2023-04-15T03:16:18.627Z,8.34
2023-04-15T03:17:18.583Z,8.32
2023-04-15T03:18:18.588Z,8.28
2023-04-15T03:19:18.590Z,8.31
2023-04-15T03:20:18.618Z,8.31
2023-04-15T03:21:18.624Z,8.28
2023-04-15T03:22:18.513Z,8.28
2023-04-15T03:23:18.481Z,8.24
2023-04-15T03:24:18.468Z,8.24
2023-04-15T03:25:18.461Z,8.21
2023-04-15T03:26:18.497Z,8.23
2023-04-15T03:27:18.507Z,8.23
2023-04-15T03:28:18.422Z,8.21
2023-04-15T03:29:18.425Z,8.20
2023-04-15T03:30:18.427Z,8.17
2023-04-15T03:31:18.458Z,8.20
2023-04-15T03:32:18.470Z,8.17
2023-04-15T03:33:18.427Z,8.17
2023-04-15T03:34:18.372Z,8.14
2023-04-15T03:35:18.413Z,8.11
2023-04-15T03:36:18.589Z,8.16
2023-04-15T03:37:18.388Z,8.09
2023-04-15T03:38:18.387Z,8.03
2023-04-15T03:39:18.382Z,8.06
2023-04-15T03:40:18.325Z,8.08
2023-04-15T03:41:18.320Z,8.05
2023-04-15T03:42:18.465Z,8.06
2023-04-15T03:43:18.450Z,8.01
2023-04-15T03:44:18.771Z,8.01
2023-04-15T03:45:18.309Z,7.99
2023-04-15T03:46:18.327Z,7.95
2023-04-15T03:47:18.271Z,7.96
2023-04-15T03:48:18.528Z,7.99
2023-04-15T03:49:18.259Z,7.98
2023-04-15T03:50:18.266Z,7.95
2023-04-15T03:51:18.219Z,7.93
2023-04-15T03:52:18.280Z,7.90
2023-04-15T03:53:18.216Z,7.95
2023-04-15T03:54:18.215Z,7.96
2023-04-15T03:55:18.166Z,7.91
2023-04-15T03:56:18.192Z,7.90
2023-04-15T03:57:18.229Z,7.90
2023-04-15T03:58:18.263Z,7.91
2023-04-15T03:59:18.200Z,7.90
2023-04-15T04:00:18.175Z,7.87
2023-04-15T04:01:18.124Z,7.88
2023-04-15T04:02:18.399Z,7.91
2023-04-15T04:03:18.254Z,7.88
2023-04-15T04:04:18.128Z,7.84
2023-04-15T04:05:18.138Z,7.84
2023-04-15T04:06:18.034Z,7.87
2023-04-15T04:07:18.065Z,7.88
2023-04-15T04:08:18.086Z,7.84
2023-04-15T04:09:18.073Z,7.83
2023-04-15T04:10:18.000Z,7.81
2023-04-15T04:11:18.106Z,7.78
2023-04-15T04:12:18.079Z,7.84
2023-04-15T04:13:17.988Z,7.78
2023-04-15T04:14:18.004Z,7.72
2023-04-15T04:15:18.045Z,7.75
2023-04-15T04:16:18.143Z,7.72
2023-04-15T04:17:17.961Z,7.72
2023-04-15T04:18:17.962Z,7.75
2023-04-15T04:19:17.898Z,7.74
2023-04-15T04:20:17.939Z,7.78
2023-04-15T04:21:17.916Z,7.81
2023-04-15T04:22:17.923Z,7.77
2023-04-15T04:23:17.925Z,7.80
2023-04-15T04:24:17.874Z,7.75
2023-04-15T04:25:17.978Z,7.72
2023-04-15T04:26:17.921Z,7.69
2023-04-15T04:27:17.829Z,7.70
2023-04-15T04:28:17.783Z,7.72
2023-04-15T04:29:17.814Z,7.70
2023-04-15T04:30:17.862Z,7.72
2023-04-15T04:31:17.816Z,7.66
2023-04-15T04:32:17.796Z,7.66
2023-04-15T04:33:17.801Z,7.69
2023-04-15T04:34:17.787Z,7.74
2023-04-15T04:35:17.776Z,7.74
2023-04-15T04:36:17.765Z,7.74
2023-04-15T04:37:17.705Z,7.74
2023-04-15T04:38:17.840Z,7.70
2023-04-15T04:39:17.774Z,7.69
2023-04-15T04:40:17.799Z,7.72
2023-04-15T04:41:17.686Z,7.70
2023-04-15T04:42:17.754Z,7.70
2023-04-15T04:43:17.832Z,7.69
2023-04-15T04:44:17.663Z,7.75
2023-04-15T04:45:17.655Z,7.69
2023-04-15T04:46:17.720Z,7.72
2023-04-15T04:47:17.596Z,7.72
2023-04-15T04:48:17.643Z,7.70
2023-04-15T04:49:17.616Z,7.75
2023-04-15T04:50:17.561Z,7.80
2023-04-15T04:51:17.583Z,7.75
2023-04-15T04:52:17.539Z,7.78
2023-04-15T04:53:17.531Z,7.80
2023-04-15T04:54:17.546Z,7.81
2023-04-15T04:55:17.506Z,7.81
2023-04-15T04:56:17.514Z,7.83
2023-04-15T04:57:17.493Z,7.81
2023-04-15T04:58:17.457Z,7.85
2023-04-15T04:59:19.346Z,7.88
2023-04-15T05:00:17.448Z,7.87
2023-04-15T05:01:17.506Z,7.85
2023-04-15T05:02:17.509Z,7.85
2023-04-15T05:03:17.644Z,7.88
2023-04-15T05:04:17.465Z,7.93
2023-04-15T05:05:17.408Z,7.96
2023-04-15T05:06:17.604Z,7.99
2023-04-15T05:07:17.457Z,7.99
2023-04-15T05:08:17.491Z,8.02
2023-04-15T05:09:17.429Z,8.01
2023-04-15T05:10:17.415Z,7.96
2023-04-15T05:11:17.352Z,7.91
2023-04-15T05:12:17.419Z,7.96
2023-04-15T05:13:17.371Z,7.98
2023-04-15T05:14:17.370Z,7.99
2023-04-15T05:15:17.335Z,8.01
2023-04-15T05:16:17.481Z,8.05
2023-04-15T05:17:17.525Z,8.05
2023-04-15T05:18:17.385Z,8.01
2023-04-15T05:19:17.356Z,8.03
2023-04-15T05:20:17.307Z,8.06
2023-04-15T05:21:17.329Z,8.02
2023-04-15T05:22:17.291Z,8.05
2023-04-15T05:23:17.323Z,8.05
2023-04-15T05:24:17.296Z,8.05
2023-04-15T05:25:17.264Z,8.13
2023-04-15T05:26:17.286Z,8.16
2023-04-15T05:27:17.238Z,8.11
2023-04-15T05:28:17.245Z,8.20
2023-04-15T05:29:17.347Z,8.23
2023-04-15T05:30:17.249Z,8.17
2023-04-15T05:31:17.229Z,8.20
2023-04-15T05:32:17.315Z,8.21
2023-04-15T05:33:17.561Z,8.26
2023-04-15T05:34:17.230Z,8.28
2023-04-15T05:35:17.103Z,8.26
2023-04-15T05:36:17.325Z,8.34
2023-04-15T05:37:17.132Z,8.39
2023-04-15T05:38:17.061Z,8.39
2023-04-15T05:39:17.254Z,8.36
2023-04-15T05:40:17.138Z,8.39
2023-04-15T05:41:19.175Z,8.42
2023-04-15T05:42:17.103Z,8.42
2023-04-15T05:43:17.057Z,8.49
2023-04-15T05:44:17.045Z,8.46
2023-04-15T05:45:17.007Z,8.56
2023-04-15T05:46:17.287Z,8.64
2023-04-15T05:47:17.089Z,8.60
2023-04-15T05:48:17.016Z,8.60
2023-04-15T05:49:16.957Z,8.61
2023-04-15T05:50:16.976Z,8.63
2023-04-15T05:51:16.948Z,8.69
2023-04-15T05:52:16.908Z,8.79
2023-04-15T05:53:16.959Z,8.79
2023-04-15T05:54:18.626Z,8.86
2023-04-15T05:55:16.890Z,8.87
2023-04-15T05:56:16.872Z,8.90
2023-04-15T05:57:17.029Z,8.92
2023-04-15T05:58:16.866Z,8.90
2023-04-15T05:59:16.861Z,8.93
2023-04-15T06:00:17.096Z,8.97
2023-04-15T06:01:16.909Z,9.02
2023-04-15T06:02:16.971Z,9.08
2023-04-15T06:03:16.896Z,9.03
2023-04-15T06:04:17.227Z,9.11
2023-04-15T06:05:16.759Z,9.13
2023-04-15T06:06:16.859Z,9.13
2023-04-15T06:07:16.764Z,9.18
2023-04-15T06:08:16.773Z,9.29
2023-04-15T06:09:16.772Z,9.33
2023-04-15T06:10:16.743Z,9.33
2023-04-15T06:11:16.877Z,9.34
2023-04-15T06:12:16.916Z,9.40
2023-04-15T06:13:16.873Z,9.45
2023-04-15T06:14:16.665Z,9.47
2023-04-15T06:15:16.668Z,9.49
2023-04-15T06:16:16.795Z,9.51
2023-04-15T06:17:16.642Z,9.48
2023-04-15T06:18:16.659Z,9.51
2023-04-15T06:19:16.643Z,9.54
2023-04-15T06:20:16.852Z,9.58
2023-04-15T06:21:16.656Z,9.64
2023-04-15T06:22:16.566Z,9.66
2023-04-15T06:23:16.562Z,9.63
2023-04-15T06:24:16.545Z,9.66
2023-04-15T06:25:16.517Z,9.69
2023-04-15T06:26:16.587Z,9.82
2023-04-15T06:27:16.509Z,9.80
2023-04-15T06:28:16.526Z,9.84
2023-04-15T06:29:16.526Z,9.82
2023-04-15T06:30:16.522Z,9.85
2023-04-15T06:31:16.495Z,9.92
2023-04-15T06:32:16.507Z,10.02
2023-04-15T06:33:16.502Z,10.05
2023-04-15T06:34:16.496Z,10.05
2023-04-15T06:35:16.442Z,10.02
2023-04-15T06:36:16.436Z,10.09
2023-04-15T06:37:16.428Z,10.15
2023-04-15T06:38:16.468Z,10.20
2023-04-15T06:39:16.434Z,10.24
2023-04-15T06:40:16.381Z,10.25
2023-04-15T06:41:16.351Z,10.30
2023-04-15T06:42:16.429Z,10.34
2023-04-15T06:43:16.405Z,10.33
2023-04-15T06:44:16.344Z,10.39
2023-04-15T06:45:16.316Z,10.45
2023-04-15T06:46:16.379Z,10.49
2023-04-15T06:47:16.314Z,10.58
2023-04-15T06:48:16.274Z,10.62
2023-04-15T06:49:16.358Z,10.62
2023-04-15T06:50:16.284Z,10.64
2023-04-15T06:51:16.331Z,10.64
2023-04-15T06:52:16.311Z,10.65
2023-04-15T06:53:16.224Z,10.61
2023-04-15T06:54:16.273Z,10.65
2023-04-15T06:55:16.237Z,10.65
2023-04-15T06:56:16.285Z,10.76
2023-04-15T06:57:16.254Z,10.84
2023-04-15T06:58:16.243Z,10.87
2023-04-15T06:59:16.169Z,10.84
2023-04-15T07:00:16.214Z,10.90
2023-04-15T07:01:16.456Z,10.90
2023-04-15T07:02:16.329Z,10.97
2023-04-15T07:03:16.395Z,11.02
2023-04-15T07:04:16.261Z,11.05
2023-04-15T07:05:16.164Z,11.08
2023-04-15T07:06:16.139Z,11.04
2023-04-15T07:07:16.123Z,11.08
2023-04-15T07:08:16.117Z,11.13
2023-04-15T07:09:16.104Z,11.25
2023-04-15T07:10:16.105Z,11.27
2023-04-15T07:11:16.053Z,11.30
2023-04-15T07:12:16.028Z,11.31
2023-04-15T07:13:16.085Z,11.40
2023-04-15T07:14:16.055Z,11.40
2023-04-15T07:15:16.082Z,11.41
2023-04-15T07:16:16.301Z,11.51
2023-04-15T07:17:15.976Z,11.55
2023-04-15T07:18:16.069Z,11.58
2023-04-15T07:19:15.988Z,11.60
2023-04-15T07:20:16.090Z,11.63
2023-04-15T07:21:15.963Z,11.68
2023-04-15T07:22:16.079Z,11.80
2023-04-15T07:23:15.919Z,11.89
2023-04-15T07:24:15.893Z,11.91
2023-04-15T07:25:15.940Z,11.95
2023-04-15T07:26:15.943Z,11.96
2023-04-15T07:27:15.874Z,12.02
2023-04-15T07:28:15.877Z,12.14
2023-04-15T07:29:15.883Z,12.14
2023-04-15T07:30:15.935Z,12.17
2023-04-15T07:31:15.880Z,12.26
2023-04-15T07:32:15.880Z,12.40
2023-04-15T07:33:15.825Z,12.45
2023-04-15T07:34:15.791Z,12.57
2023-04-15T07:35:15.913Z,12.61
2023-04-15T07:36:16.122Z,12.70
2023-04-15T07:37:15.812Z,12.83
2023-04-15T07:38:15.821Z,12.83
2023-04-15T07:39:15.778Z,12.90
2023-04-15T07:40:15.731Z,12.98
2023-04-15T07:41:15.805Z,12.98
2023-04-15T07:42:15.726Z,13.01
2023-04-15T07:43:15.843Z,13.09
2023-04-15T07:44:15.766Z,13.12
2023-04-15T07:45:15.885Z,13.11
2023-04-15T07:46:15.753Z,13.12
2023-04-15T07:47:15.755Z,13.21
2023-04-15T07:48:15.769Z,13.26
2023-04-15T07:49:15.721Z,13.27
2023-04-15T07:50:15.650Z,13.26
2023-04-15T07:51:15.696Z,13.24
2023-04-15T07:52:15.864Z,13.23
2023-04-15T07:53:15.631Z,13.19
2023-04-15T07:54:16.616Z,13.23
2023-04-15T07:55:15.599Z,13.23
2023-04-15T07:56:15.603Z,13.17
2023-04-15T07:57:15.558Z,13.27
2023-04-15T07:58:15.573Z,13.27
2023-04-15T07:59:15.596Z,13.24
2023-04-15T08:00:15.525Z,13.23
2023-04-15T08:01:15.559Z,13.17
2023-04-15T08:02:15.572Z,13.21
2023-04-15T08:03:15.830Z,13.27
2023-04-15T08:04:15.634Z,13.39
2023-04-15T08:05:15.511Z,13.43
2023-04-15T08:06:15.512Z,13.50
2023-04-15T08:07:15.478Z,13.54
2023-04-15T08:08:16.307Z,13.64
2023-04-15T08:09:15.477Z,13.64
2023-04-15T08:10:15.492Z,13.68
2023-04-15T08:11:15.456Z,13.73
2023-04-15T08:12:15.411Z,13.87
2023-04-15T08:13:15.403Z,13.97
2023-04-15T08:14:15.407Z,14.12
2023-04-15T08:15:15.637Z,14.18
2023-04-15T08:16:15.384Z,14.26
2023-04-15T08:17:15.545Z,14.26
2023-04-15T08:18:15.378Z,14.18
2023-04-15T08:19:15.429Z,14.16
2023-04-15T08:20:15.650Z,14.13
2023-04-15T08:21:15.317Z,14.15
2023-04-15T08:22:15.491Z,14.08
2023-04-15T08:23:15.351Z,14.11
2023-04-15T08:24:15.336Z,14.12
2023-04-15T08:25:15.303Z,14.23
2023-04-15T08:26:15.275Z,14.26
2023-04-15T08:27:15.353Z,14.28
2023-04-15T08:28:15.370Z,14.22
2023-04-15T08:29:15.232Z,14.05
2023-04-15T08:30:15.213Z,14.11
2023-04-15T08:31:15.199Z,14.13
2023-04-15T08:32:15.353Z,14.15
2023-04-15T08:33:15.196Z,14.20
2023-04-15T08:34:15.191Z,14.19
2023-04-15T08:35:15.164Z,14.08
2023-04-15T08:36:15.149Z,14.05
2023-04-15T08:37:15.191Z,14.07
2023-04-15T08:38:15.153Z,13.95
2023-04-15T08:39:15.159Z,13.86
2023-04-15T08:40:15.785Z,13.85
2023-04-15T08:41:15.183Z,13.73
2023-04-15T08:42:15.149Z,13.64
2023-04-15T08:43:15.106Z,13.54
2023-04-15T08:44:15.190Z,13.62
2023-04-15T08:45:15.127Z,13.68
2023-04-15T08:46:15.157Z,13.65
2023-04-15T08:47:15.096Z,13.67
2023-04-15T08:48:15.139Z,13.62
2023-04-15T08:49:15.023Z,13.65
2023-04-15T08:50:15.085Z,13.64
2023-04-15T08:51:15.022Z,13.52
2023-04-15T08:52:15.085Z,13.52
2023-04-15T08:53:15.085Z,13.39
2023-04-15T08:54:14.961Z,13.42
2023-04-15T08:55:15.649Z,13.52
2023-04-15T08:56:14.924Z,13.61
2023-04-15T08:57:14.985Z,13.62
2023-04-15T08:58:14.924Z,13.65
2023-04-15T08:59:14.956Z,13.62
2023-04-15T09:00:15.174Z,13.64
2023-04-15T09:01:14.941Z,13.57
2023-04-15T09:02:14.922Z,13.55
2023-04-15T09:03:14.920Z,13.52
2023-04-15T09:04:14.976Z,13.52
2023-04-15T09:05:14.930Z,13.50
2023-04-15T09:06:14.808Z,13.49
2023-04-15T09:07:14.794Z,13.45
2023-04-15T09:08:14.969Z,13.42
2023-04-15T09:09:14.784Z,13.42
2023-04-15T09:10:14.901Z,13.37
2023-04-15T09:11:15.020Z,13.37
2023-04-15T09:12:14.813Z,13.43
2023-04-15T09:13:14.795Z,13.47
2023-04-15T09:14:14.861Z,13.58
2023-04-15T09:15:14.790Z,13.73
2023-04-15T09:16:14.778Z,13.80
2023-04-15T09:17:14.792Z,13.83
2023-04-15T09:18:14.776Z,13.83
2023-04-15T09:19:14.799Z,13.82
2023-04-15T09:20:14.719Z,13.87
2023-04-15T09:21:14.675Z,13.93
2023-04-15T09:22:14.737Z,13.89
2023-04-15T09:23:14.777Z,13.91
2023-04-15T09:24:14.862Z,13.91
2023-04-15T09:25:14.814Z,13.95
2023-04-15T09:26:14.752Z,14.03
2023-04-15T09:27:14.628Z,14.08
2023-04-15T09:28:14.621Z,14.07
2023-04-15T09:29:14.629Z,13.94
2023-04-15T09:30:14.633Z,14.01
2023-04-15T09:31:14.652Z,14.08
2023-04-15T09:32:14.631Z,14.15
2023-04-15T09:33:14.614Z,14.12
2023-04-15T09:34:14.624Z,14.20
2023-04-15T09:35:14.616Z,14.25
2023-04-15T09:36:14.621Z,14.33
2023-04-15T09:37:28.651Z,14.43
2023-04-15T09:38:15.647Z,14.48
2023-04-15T09:39:14.502Z,14.51
2023-04-15T09:40:14.480Z,14.59
2023-04-15T09:41:14.467Z,14.74
2023-04-15T09:42:14.500Z,14.73
2023-04-15T09:43:14.548Z,14.82
2023-04-15T09:44:14.477Z,14.89
2023-04-15T09:45:14.430Z,14.89
2023-04-15T09:46:14.519Z,14.81
2023-04-15T09:47:14.390Z,14.78
2023-04-15T09:48:14.427Z,14.74
2023-04-15T09:49:14.538Z,14.73
2023-04-15T09:50:14.544Z,14.70
2023-04-15T09:51:14.428Z,14.67
2023-04-15T09:52:14.516Z,14.68
2023-04-15T09:53:14.335Z,14.74
2023-04-15T09:54:14.400Z,14.74
2023-04-15T09:55:14.297Z,14.73
2023-04-15T09:56:14.368Z,14.67
2023-04-15T09:57:14.256Z,14.62
2023-04-15T09:58:14.278Z,14.53
2023-04-15T09:59:14.263Z,14.52
2023-04-15T10:00:14.360Z,14.51
2023-04-15T10:01:14.281Z,14.49
2023-04-15T10:02:14.340Z,14.49
2023-04-15T10:03:14.302Z,14.45
2023-04-15T10:04:14.364Z,14.43
2023-04-15T10:05:14.216Z,14.51
2023-04-15T10:06:14.250Z,14.58
2023-04-15T10:07:14.153Z,14.63
2023-04-15T10:08:14.143Z,14.70
2023-04-15T10:09:14.112Z,14.82
2023-04-15T10:10:14.118Z,14.90
2023-04-15T10:11:14.093Z,14.82
2023-04-15T10:12:14.435Z,14.77
2023-04-15T10:13:14.149Z,14.62
2023-04-15T10:14:14.147Z,14.67
2023-04-15T10:15:14.135Z,14.79
2023-04-15T10:16:14.154Z,14.70
2023-04-15T10:17:14.094Z,14.82
2023-04-15T10:18:14.075Z,15.00
2023-04-15T10:19:14.071Z,15.04
2023-04-15T10:20:14.077Z,15.04
2023-04-15T10:21:14.010Z,15.00
2023-04-15T10:22:13.999Z,14.93
2023-04-15T10:23:13.969Z,14.92
2023-04-15T10:24:13.980Z,14.86
2023-04-15T10:25:14.013Z,14.68
2023-04-15T10:26:13.942Z,14.59
2023-04-15T10:27:13.960Z,14.55
2023-04-15T10:28:13.960Z,14.59
2023-04-15T10:29:13.961Z,14.66
2023-04-15T10:30:13.969Z,14.71
2023-04-15T10:31:13.941Z,14.56
2023-04-15T10:32:13.863Z,14.51
2023-04-15T10:33:13.867Z,14.51
2023-04-15T10:34:13.945Z,14.55
2023-04-15T10:35:13.865Z,14.53
2023-04-15T10:36:13.805Z,14.52
2023-04-15T10:37:13.799Z,14.55
2023-04-15T10:38:13.798Z,14.56
2023-04-15T10:39:13.797Z,14.49
2023-04-15T10:40:13.762Z,14.49
2023-04-15T10:41:13.748Z,14.48
2023-04-15T10:42:13.770Z,14.53
2023-04-15T10:43:13.947Z,14.56
2023-04-15T10:44:13.765Z,14.59
2023-04-15T10:45:13.802Z,14.66
2023-04-15T10:46:13.712Z,14.70
2023-04-15T10:47:13.689Z,14.67
2023-04-15T10:48:13.871Z,14.73
2023-04-15T10:49:13.666Z,14.79
2023-04-15T10:50:13.684Z,14.81
2023-04-15T10:51:13.712Z,14.78
2023-04-15T10:52:13.682Z,14.74
2023-04-15T10:53:13.628Z,14.71
2023-04-15T10:54:13.629Z,14.79
2023-04-15T10:55:13.603Z,14.85
2023-04-15T10:56:13.608Z,14.85
2023-04-15T10:57:13.614Z,14.89
2023-04-15T10:58:13.586Z,14.94
2023-04-15T10:59:13.566Z,14.96
2023-04-15T11:00:13.728Z,15.08
2023-04-15T11:01:13.602Z,15.11
2023-04-15T11:02:13.574Z,15.12
2023-04-15T11:03:13.600Z,15.07
2023-04-15T11:04:13.638Z,15.11
2023-04-15T11:05:13.516Z,15.14
2023-04-15T11:06:13.471Z,15.17
2023-04-15T11:07:13.465Z,15.27
2023-04-15T11:08:13.467Z,15.44
2023-04-15T11:09:13.453Z,15.52
2023-04-15T11:10:13.482Z,15.60
2023-04-15T11:11:13.479Z,15.57
2023-04-15T11:12:13.445Z,15.57
2023-04-15T11:13:13.434Z,15.65
2023-04-15T11:14:13.418Z,15.63
2023-04-15T11:15:13.411Z,15.60
2023-04-15T11:16:13.546Z,15.62
2023-04-15T11:17:13.368Z,15.50
2023-04-15T11:18:13.351Z,15.52
2023-04-15T11:19:13.350Z,15.54
2023-04-15T11:20:13.360Z,15.48
2023-04-15T11:21:13.325Z,15.48
2023-04-15T11:22:13.349Z,15.55
2023-04-15T11:23:15.188Z,15.50
2023-04-15T11:24:13.267Z,15.47
2023-04-15T11:25:13.360Z,15.48
2023-04-15T11:26:13.256Z,15.50
2023-04-15T11:27:13.307Z,15.54
2023-04-15T11:28:13.327Z,15.62
2023-04-15T11:29:13.284Z,15.63
2023-04-15T11:30:13.273Z,15.65
2023-04-15T11:31:13.270Z,15.62
2023-04-15T11:32:13.215Z,15.60
2023-04-15T11:33:13.178Z,15.59
2023-04-15T11:34:13.191Z,15.63
2023-04-15T11:35:13.208Z,15.80
2023-04-15T11:36:13.157Z,15.76
2023-04-15T11:37:13.148Z,15.67
2023-04-15T11:38:13.171Z,15.66
2023-04-15T11:39:13.111Z,15.80
2023-04-15T11:40:13.124Z,15.98
2023-04-15T11:41:13.148Z,16.09
2023-04-15T11:42:13.133Z,16.13
2023-04-15T11:43:13.126Z,16.10
2023-04-15T11:44:13.056Z,16.06
2023-04-15T11:45:13.094Z,16.02
2023-04-15T11:46:13.158Z,16.02
2023-04-15T11:47:13.105Z,15.94
2023-04-15T11:48:13.121Z,15.94
2023-04-15T11:49:13.066Z,15.91
2023-04-15T11:50:13.108Z,15.85
2023-04-15T11:51:13.056Z,15.78
2023-04-15T11:52:12.982Z,15.70
2023-04-15T11:53:13.154Z,15.69
2023-04-15T11:54:12.973Z,15.65
2023-04-15T11:55:12.974Z,15.62
2023-04-15T11:56:12.935Z,15.54
2023-04-15T11:57:12.935Z,15.51
2023-04-15T11:58:15.047Z,15.51
2023-04-15T11:59:12.888Z,15.48
2023-04-15T12:00:12.953Z,15.39
2023-04-15T12:01:12.901Z,15.35
2023-04-15T12:02:13.007Z,15.29
2023-04-15T12:03:13.118Z,15.22
2023-04-15T12:04:13.108Z,15.22
2023-04-15T12:05:12.867Z,15.23
2023-04-15T12:06:12.899Z,15.30
2023-04-15T12:07:12.838Z,15.37
2023-04-15T12:08:12.807Z,15.29
2023-04-15T12:09:12.863Z,15.17
2023-04-15T12:10:12.842Z,15.12
2023-04-15T12:11:12.795Z,15.07
2023-04-15T12:12:12.844Z,15.12
2023-04-15T12:13:12.854Z,15.02
2023-04-15T12:14:12.826Z,14.93
2023-04-15T12:15:12.907Z,14.90
2023-04-15T12:16:12.771Z,14.81
2023-04-15T12:17:12.708Z,14.79
2023-04-15T12:18:12.724Z,14.90
2023-04-15T12:19:12.688Z,14.86
2023-04-15T12:20:12.701Z,14.82
2023-04-15T12:21:12.712Z,14.82
2023-04-15T12:22:12.750Z,14.81
2023-04-15T12:23:12.692Z,14.85
2023-04-15T12:24:12.672Z,14.86
2023-04-15T12:25:12.646Z,14.85
2023-04-15T12:26:12.640Z,14.85
2023-04-15T12:27:12.674Z,14.79
2023-04-15T12:28:12.606Z,14.77
2023-04-15T12:29:12.594Z,14.82
2023-04-15T12:30:12.596Z,14.81
2023-04-15T12:31:12.578Z,14.81
2023-04-15T12:32:12.567Z,14.85
2023-04-15T12:33:12.548Z,14.73
2023-04-15T12:34:12.545Z,14.73
2023-04-15T12:35:12.534Z,14.53
2023-04-15T12:36:12.538Z,14.51
2023-04-15T12:37:12.570Z,14.48
2023-04-15T12:38:12.552Z,14.33
2023-04-15T12:39:12.485Z,14.25
2023-04-15T12:40:12.529Z,14.20
2023-04-15T12:41:12.468Z,14.23
2023-04-15T12:42:12.492Z,14.23
2023-04-15T12:43:12.484Z,14.23
2023-04-15T12:44:12.437Z,14.22
2023-04-15T12:45:12.431Z,14.16
2023-04-15T12:46:12.470Z,14.12
2023-04-15T12:47:12.428Z,13.97
2023-04-15T12:48:12.378Z,13.98
2023-04-15T12:49:12.373Z,13.98
2023-04-15T12:50:12.393Z,14.03
2023-04-15T12:51:12.378Z,13.97
2023-04-15T12:52:12.351Z,13.93
2023-04-15T12:53:12.321Z,13.86
2023-04-15T12:54:12.299Z,13.87
2023-04-15T12:55:12.364Z,13.87
2023-04-15T12:56:12.315Z,13.93
2023-04-15T12:57:12.333Z,13.98
2023-04-15T12:58:12.267Z,13.95
2023-04-15T12:59:12.340Z,13.91
2023-04-15T13:00:12.328Z,13.89
2023-04-15T13:01:12.381Z,13.93
2023-04-15T13:02:12.338Z,13.91
2023-04-15T13:03:12.326Z,13.86
2023-04-15T13:04:12.407Z,13.85
2023-04-15T13:05:12.236Z,13.85